Time,TemperatureF,DewpointF,PressureIn,WindDirection,WindDirectionDegrees,WindSpeedMPH,WindSpeedGustMPH,Humidity,HourlyPrecipIn,Conditions,Clouds,dailyrainin,SoftwareType,DateUTC
2013-02-01 00:00:00,14.6,6.9,30.03,NW,313,14.0,14.0,71,0.00,,,0.00,Wunderground v.1.15,2013-02-01 06:00:00,
2013-02-01 00:05:00,14.8,8.0,30.03,NNE,13,13.0,14.0,74,0.00,,,0.00,Wunderground v.1.15,2013-02-01 06:05:00,
2013-02-01 00:10:00,14.6,6.6,30.03,North,360,14.0,15.0,70,0.00,,,0.00,Wunderground v.1.15,2013-02-01 06:10:00,
2013-02-01 00:15:00,14.9,7.8,30.04,NNW,336,16.0,22.0,73,0.00,,,0.00,Wunderground v.1.15,2013-02-01 06:15:00,
2013-02-01 00:20:00,14.8,8.3,30.04,North,360,16.0,18.0,75,0.00,,,0.00,Wunderground v.1.15,2013-02-01 06:20:00,
2013-02-01 00:25:00,14.6,7.5,30.04,NW,323,16.0,18.0,73,0.00,,,0.00,Wunderground v.1.15,2013-02-01 06:25:00,
2013-02-01 00:30:00,14.6,6.9,30.04,North,360,14.0,21.0,71,0.00,,,0.00,Wunderground v.1.15,2013-02-01 06:30:00,
2013-02-01 00:35:00,14.1,7.3,30.04,NW,321,14.0,21.0,74,0.00,,,0.00,Wunderground v.1.15,2013-02-01 06:35:00,
2013-02-01 00:40:00,14.3,8.4,30.04,NNW,340,16.0,17.0,77,0.00,,,0.00,Wunderground v.1.15,2013-02-01 06:40:00,
2013-02-01 00:45:00,14.3,7.8,30.05,NNW,329,16.0,17.0,75,0.00,,,0.00,Wunderground v.1.15,2013-02-01 06:45:00,
2013-02-01 00:50:00,14.4,7.0,30.05,NW,316,15.0,15.0,72,0.00,,,0.00,Wunderground v.1.15,2013-02-01 06:50:00,
2013-02-01 00:55:00,14.1,7.3,30.05,NW,322,14.0,16.0,74,0.00,,,0.00,Wunderground v.1.15,2013-02-01 06:55:00,
2013-02-01 01:00:00,14.0,7.5,30.06,North,355,13.0,13.0,75,0.00,,,0.00,Wunderground v.1.15,2013-02-01 07:00:00,
2013-02-01 01:05:00,14.1,6.4,30.06,NW,313,14.0,14.0,71,0.00,,,0.00,Wunderground v.1.15,2013-02-01 07:05:00,
2013-02-01 01:10:00,14.0,6.6,30.06,NW,321,15.0,15.0,72,0.00,,,0.00,Wunderground v.1.15,2013-02-01 07:10:00,
2013-02-01 01:15:00,14.0,5.7,30.07,NNW,331,15.0,15.0,69,0.00,,,0.00,Wunderground v.1.15,2013-02-01 07:15:00,
2013-02-01 01:25:00,13.8,6.7,30.07,NNW,336,15.0,15.0,73,0.00,,,0.00,Wunderground v.1.15,2013-02-01 07:25:00,
2013-02-01 01:30:00,13.6,6.8,30.07,NW,317,14.0,25.0,74,0.00,,,0.00,Wunderground v.1.15,2013-02-01 07:30:00,
2013-02-01 01:35:00,13.8,7.0,30.07,NW,325,12.0,25.0,74,0.00,,,0.00,Wunderground v.1.15,2013-02-01 07:35:00,
2013-02-01 01:40:00,13.6,7.4,30.07,NW,323,11.0,11.0,76,0.00,,,0.00,Wunderground v.1.15,2013-02-01 07:40:00,
2013-02-01 01:45:00,13.5,7.6,30.08,NW,317,11.0,12.0,77,0.00,,,0.00,Wunderground v.1.15,2013-02-01 07:45:00,
2013-02-01 01:50:00,13.6,6.8,30.08,NNW,344,13.0,18.0,74,0.00,,,0.00,Wunderground v.1.15,2013-02-01 07:50:00,
2013-02-01 02:00:00,13.5,7.3,30.09,NW,323,13.0,13.0,76,0.00,,,0.00,Wunderground v.1.15,2013-02-01 08:00:00,
2013-02-01 02:05:00,13.5,7.9,30.09,North,355,12.0,13.0,78,0.00,,,0.00,Wunderground v.1.15,2013-02-01 08:05:00,
2013-02-01 02:10:00,13.3,8.0,30.09,NNW,333,13.0,13.0,79,0.00,,,0.00,Wunderground v.1.15,2013-02-01 08:10:00,
2013-02-01 02:15:00,13.1,8.1,30.10,WNW,297,13.0,13.0,80,0.00,,,0.00,Wunderground v.1.15,2013-02-01 08:15:00,
2013-02-01 02:20:00,13.3,8.3,30.10,NNW,338,13.0,13.0,80,0.00,,,0.00,Wunderground v.1.15,2013-02-01 08:20:00,
2013-02-01 02:25:00,13.3,7.7,30.10,NNW,335,12.0,21.0,78,0.00,,,0.00,Wunderground v.1.15,2013-02-01 08:25:00,
2013-02-01 02:30:00,13.3,6.9,30.10,NW,316,11.0,11.0,75,0.00,,,0.00,Wunderground v.1.15,2013-02-01 08:30:00,
2013-02-01 02:35:00,13.3,6.6,30.10,NW,320,12.0,14.0,74,0.00,,,0.00,Wunderground v.1.15,2013-02-01 08:35:00,
2013-02-01 02:40:00,13.3,7.1,30.10,NNW,327,12.0,16.0,76,0.00,,,0.00,Wunderground v.1.15,2013-02-01 08:40:00,
2013-02-01 02:44:00,13.1,7.2,30.12,NNW,328,13.0,16.0,77,0.00,,,0.00,Wunderground v.1.15,2013-02-01 08:44:00,
2013-02-01 02:50:00,13.1,7.0,30.12,NW,304,14.0,14.0,76,0.00,,,0.00,Wunderground v.1.15,2013-02-01 08:50:00,
2013-02-01 02:55:00,13.1,6.4,30.12,NNW,331,13.0,14.0,74,0.00,,,0.00,Wunderground v.1.15,2013-02-01 08:55:00,
2013-02-01 03:00:00,13.3,6.0,30.12,NW,323,12.0,12.0,72,0.00,,,0.00,Wunderground v.1.15,2013-02-01 09:00:00,
2013-02-01 03:05:00,13.3,6.0,30.12,NW,319,14.0,17.0,72,0.00,,,0.00,Wunderground v.1.15,2013-02-01 09:05:00,
2013-02-01 03:10:00,13.1,5.5,30.12,NNW,329,15.0,15.0,71,0.00,,,0.00,Wunderground v.1.15,2013-02-01 09:10:00,
2013-02-01 03:15:00,13.3,6.0,30.13,NNW,328,14.0,15.0,72,0.00,,,0.00,Wunderground v.1.15,2013-02-01 09:15:00,
2013-02-01 03:25:00,13.3,6.0,30.13,WNW,300,12.0,15.0,72,0.00,,,0.00,Wunderground v.1.15,2013-02-01 09:25:00,
2013-02-01 03:30:00,13.3,6.6,30.13,NNW,327,11.0,13.0,74,0.00,,,0.00,Wunderground v.1.15,2013-02-01 09:30:00,
2013-02-01 03:35:00,12.8,6.9,30.13,NNW,330,11.0,13.0,77,0.00,,,0.00,Wunderground v.1.15,2013-02-01 09:35:00,
2013-02-01 03:40:00,12.9,7.3,30.13,North,355,11.0,15.0,78,0.00,,,0.00,Wunderground v.1.15,2013-02-01 09:40:00,
2013-02-01 03:45:00,12.8,6.7,30.14,NNW,336,10.0,15.0,76,0.00,,,0.00,Wunderground v.1.15,2013-02-01 09:45:00,
2013-02-01 03:50:00,12.6,5.9,30.14,WNW,296,10.0,11.0,74,0.00,,,0.00,Wunderground v.1.15,2013-02-01 09:50:00,
2013-02-01 03:54:00,12.6,4.7,30.14,NW,312,12.0,12.0,70,0.00,,,0.00,Wunderground v.1.15,2013-02-01 09:54:00,
2013-02-01 04:00:00,12.6,4.3,30.15,WNW,296,13.0,13.0,69,0.00,,,0.00,Wunderground v.1.15,2013-02-01 10:00:00,
2013-02-01 04:05:00,12.6,5.0,30.15,NNW,340,12.0,13.0,71,0.00,,,0.00,Wunderground v.1.15,2013-02-01 10:05:00,
2013-02-01 04:10:00,12.6,5.6,30.15,NW,309,10.0,10.0,73,0.00,,,0.00,Wunderground v.1.15,2013-02-01 10:10:00,
2013-02-01 04:15:00,12.6,5.3,30.16,NNW,336,8.0,11.0,72,0.00,,,0.00,Wunderground v.1.15,2013-02-01 10:15:00,
2013-02-01 04:20:00,12.8,5.2,30.16,NNW,327,10.0,10.0,71,0.00,,,0.00,Wunderground v.1.15,2013-02-01 10:20:00,
2013-02-01 04:25:00,12.6,5.6,30.16,WNW,296,11.0,14.0,73,0.00,,,0.00,Wunderground v.1.15,2013-02-01 10:25:00,
2013-02-01 04:30:00,12.4,6.3,30.17,West,276,11.0,11.0,76,0.00,,,0.00,Wunderground v.1.15,2013-02-01 10:30:00,
2013-02-01 04:35:00,12.1,6.8,30.17,NNW,330,10.0,11.0,79,0.00,,,0.00,Wunderground v.1.15,2013-02-01 10:35:00,
2013-02-01 04:39:00,12.1,6.6,30.17,NNW,341,9.0,10.0,78,0.00,,,0.00,Wunderground v.1.15,2013-02-01 10:39:00,
2013-02-01 04:45:00,12.1,6.3,30.17,NW,308,9.0,10.0,77,0.00,,,0.00,Wunderground v.1.15,2013-02-01 10:45:00,
2013-02-01 04:50:00,11.9,5.5,30.17,WNW,300,10.0,10.0,75,0.00,,,0.00,Wunderground v.1.15,2013-02-01 10:50:00,
2013-02-01 04:55:00,11.9,5.8,30.17,NNW,329,11.0,11.0,76,0.00,,,0.00,Wunderground v.1.15,2013-02-01 10:55:00,
2013-02-01 04:59:00,11.9,4.3,30.18,NW,307,11.0,19.0,71,0.00,,,0.00,Wunderground v.1.15,2013-02-01 10:59:00,
2013-02-01 05:05:00,12.1,5.1,30.18,North,355,12.0,19.0,73,0.00,,,0.00,Wunderground v.1.15,2013-02-01 11:05:00,
2013-02-01 05:10:00,11.7,5.6,30.18,WNW,294,10.0,10.0,76,0.00,,,0.00,Wunderground v.1.15,2013-02-01 11:10:00,
2013-02-01 05:15:00,11.6,5.8,30.18,NW,325,11.0,16.0,77,0.00,,,0.00,Wunderground v.1.15,2013-02-01 11:15:00,
2013-02-01 05:20:00,11.4,5.9,30.18,WNW,297,12.0,19.0,78,0.00,,,0.00,Wunderground v.1.15,2013-02-01 11:20:00,
2013-02-01 05:25:00,11.4,6.2,30.18,WNW,297,11.0,19.0,79,0.00,,,0.00,Wunderground v.1.15,2013-02-01 11:25:00,
2013-02-01 05:30:00,11.4,6.2,30.20,NW,319,10.0,10.0,79,0.00,,,0.00,Wunderground v.1.15,2013-02-01 11:30:00,
2013-02-01 05:34:00,11.4,6.2,30.20,NNW,336,10.0,10.0,79,0.00,,,0.00,Wunderground v.1.15,2013-02-01 11:34:00,
2013-02-01 05:40:00,11.2,5.7,30.20,NW,310,11.0,11.0,78,0.00,,,0.00,Wunderground v.1.15,2013-02-01 11:40:00,
2013-02-01 05:45:00,11.2,6.0,30.20,NNW,339,11.0,17.0,79,0.00,,,0.00,Wunderground v.1.15,2013-02-01 11:45:00,
2013-02-01 05:50:00,11.2,6.0,30.20,NW,308,10.0,14.0,79,0.00,,,0.00,Wunderground v.1.15,2013-02-01 11:50:00,
2013-02-01 05:55:00,11.1,5.9,30.20,NW,323,10.0,14.0,79,0.00,,,0.00,Wunderground v.1.15,2013-02-01 11:55:00,
2013-02-01 06:00:00,11.1,5.9,30.21,NW,314,10.0,10.0,79,0.00,,,0.00,Wunderground v.1.15,2013-02-01 12:00:00,
2013-02-01 06:05:00,11.1,5.6,30.21,WNW,297,9.0,10.0,78,0.00,,,0.00,Wunderground v.1.15,2013-02-01 12:05:00,
2013-02-01 06:10:00,10.9,5.4,30.21,NW,310,8.0,13.0,78,0.00,,,0.00,Wunderground v.1.15,2013-02-01 12:10:00,
2013-02-01 06:15:00,10.7,5.5,30.22,NW,313,9.0,13.0,79,0.00,,,0.00,Wunderground v.1.15,2013-02-01 12:15:00,
2013-02-01 06:19:00,10.7,5.2,30.22,WNW,287,10.0,10.0,78,0.00,,,0.00,Wunderground v.1.15,2013-02-01 12:19:00,
2013-02-01 06:25:00,10.7,5.2,30.22,NNW,329,9.0,10.0,78,0.00,,,0.00,Wunderground v.1.15,2013-02-01 12:25:00,
2013-02-01 06:30:00,10.7,4.9,30.22,NW,317,8.0,16.0,77,0.00,,,0.00,Wunderground v.1.15,2013-02-01 12:30:00,
2013-02-01 06:34:00,10.7,4.6,30.22,NW,315,10.0,16.0,76,0.00,,,0.00,Wunderground v.1.15,2013-02-01 12:34:00,
2013-02-01 06:40:00,10.5,3.8,30.22,NW,320,10.0,13.0,74,0.00,,,0.00,Wunderground v.1.15,2013-02-01 12:40:00,
2013-02-01 06:45:00,10.5,3.8,30.23,NW,321,10.0,13.0,74,0.00,,,0.00,Wunderground v.1.15,2013-02-01 12:45:00,
2013-02-01 06:50:00,10.5,3.6,30.23,West,281,9.0,9.0,73,0.00,,,0.00,Wunderground v.1.15,2013-02-01 12:50:00,
2013-02-01 06:55:00,10.7,3.7,30.23,NW,313,8.0,9.0,73,0.00,,,0.00,Wunderground v.1.15,2013-02-01 12:55:00,
2013-02-01 07:00:00,10.7,3.7,30.23,NNW,333,8.0,10.0,73,0.00,,,0.00,Wunderground v.1.15,2013-02-01 13:00:00,
2013-02-01 07:05:00,10.5,4.1,30.23,NW,321,9.0,10.0,75,0.00,,,0.00,Wunderground v.1.15,2013-02-01 13:05:00,
2013-02-01 07:10:00,10.7,4.3,30.23,West,277,9.0,9.0,75,0.00,,,0.00,Wunderground v.1.15,2013-02-01 13:10:00,
2013-02-01 07:14:00,10.7,4.6,30.24,NW,322,8.0,9.0,76,0.00,,,0.00,Wunderground v.1.15,2013-02-01 13:14:00,
2013-02-01 07:19:00,10.7,5.2,30.24,WNW,302,9.0,14.0,78,0.00,,,0.00,Wunderground v.1.15,2013-02-01 13:19:00,
2013-02-01 07:25:00,10.9,5.7,30.24,NNW,329,9.0,15.0,79,0.00,,,0.00,Wunderground v.1.15,2013-02-01 13:25:00,
2013-02-01 07:30:00,10.7,4.6,30.24,NW,325,10.0,15.0,76,0.00,,,0.00,Wunderground v.1.15,2013-02-01 13:30:00,
2013-02-01 07:35:00,10.7,4.0,30.24,WNW,298,11.0,15.0,74,0.00,,,0.00,Wunderground v.1.15,2013-02-01 13:35:00,
2013-02-01 07:40:00,10.9,4.2,30.24,NW,305,10.0,11.0,74,0.00,,,0.00,Wunderground v.1.15,2013-02-01 13:40:00,
2013-02-01 07:45:00,10.9,4.5,30.25,NW,314,10.0,15.0,75,0.00,,,0.00,Wunderground v.1.15,2013-02-01 13:45:00,
2013-02-01 07:50:00,10.7,4.6,30.25,NW,313,10.0,10.0,76,0.00,,,0.00,Wunderground v.1.15,2013-02-01 13:50:00,
2013-02-01 07:55:00,10.7,4.9,30.25,WNW,288,10.0,11.0,77,0.00,,,0.00,Wunderground v.1.15,2013-02-01 13:55:00,
2013-02-01 08:00:00,10.5,4.7,30.25,NNW,347,10.0,12.0,77,0.00,,,0.00,Wunderground v.1.15,2013-02-01 14:00:00,
2013-02-01 08:05:00,10.5,4.7,30.25,North,355,9.0,12.0,77,0.00,,,0.00,Wunderground v.1.15,2013-02-01 14:05:00,
2013-02-01 08:10:00,10.5,5.0,30.25,WNW,299,8.0,10.0,78,0.00,,,0.00,Wunderground v.1.15,2013-02-01 14:10:00,
2013-02-01 08:15:00,10.5,5.0,30.26,NW,306,8.0,10.0,78,0.00,,,0.00,Wunderground v.1.15,2013-02-01 14:15:00,
2013-02-01 08:20:00,10.7,4.6,30.26,NW,309,9.0,9.0,76,0.00,,,0.00,Wunderground v.1.15,2013-02-01 14:20:00,
2013-02-01 08:25:00,10.7,4.9,30.26,NNW,331,9.0,9.0,77,0.00,,,0.00,Wunderground v.1.15,2013-02-01 14:25:00,
2013-02-01 08:30:00,10.5,4.4,30.26,WNW,302,10.0,14.0,76,0.00,,,0.00,Wunderground v.1.15,2013-02-01 14:30:00,
2013-02-01 08:34:00,10.5,4.4,30.26,NW,309,10.0,14.0,76,0.00,,,0.00,Wunderground v.1.15,2013-02-01 14:34:00,
2013-02-01 08:39:00,10.7,4.0,30.26,WNW,300,7.0,7.0,74,0.00,,,0.00,Wunderground v.1.15,2013-02-01 14:39:00,
2013-02-01 08:45:00,10.7,4.3,30.26,WNW,294,7.0,10.0,75,0.00,,,0.00,Wunderground v.1.15,2013-02-01 14:45:00,
2013-02-01 08:50:00,10.5,4.1,30.26,NW,326,8.0,11.0,75,0.00,,,0.00,Wunderground v.1.15,2013-02-01 14:50:00,
2013-02-01 08:55:00,10.7,4.3,30.26,NW,306,10.0,11.0,75,0.00,,,0.00,Wunderground v.1.15,2013-02-01 14:55:00,
2013-02-01 09:00:00,10.7,4.6,30.27,WNW,295,10.0,10.0,76,0.00,,,0.00,Wunderground v.1.15,2013-02-01 15:00:00,
2013-02-01 09:05:00,10.7,4.6,30.27,West,276,8.0,10.0,76,0.00,,,0.00,Wunderground v.1.15,2013-02-01 15:05:00,
2013-02-01 09:10:00,10.7,4.0,30.27,NW,305,7.0,7.0,74,0.00,,,0.00,Wunderground v.1.15,2013-02-01 15:10:00,
2013-02-01 09:15:00,10.9,4.5,30.28,NW,315,7.0,7.0,75,0.00,,,0.00,Wunderground v.1.15,2013-02-01 15:15:00,
2013-02-01 09:20:00,10.5,3.8,30.28,NW,324,9.0,9.0,74,0.00,,,0.00,Wunderground v.1.15,2013-02-01 15:20:00,
2013-02-01 09:25:00,10.7,4.0,30.28,West,271,9.0,9.0,74,0.00,,,0.00,Wunderground v.1.15,2013-02-01 15:25:00,
2013-02-01 09:30:00,10.5,3.8,30.29,NW,317,8.0,9.0,74,0.00,,,0.00,Wunderground v.1.15,2013-02-01 15:30:00,
2013-02-01 09:35:00,10.5,3.8,30.29,WNW,284,9.0,9.0,74,0.00,,,0.00,Wunderground v.1.15,2013-02-01 15:35:00,
2013-02-01 09:40:00,10.5,4.1,30.29,WNW,289,8.0,14.0,75,0.00,,,0.00,Wunderground v.1.15,2013-02-01 15:40:00,
2013-02-01 09:45:00,10.5,4.4,30.29,West,276,8.0,14.0,76,0.00,,,0.00,Wunderground v.1.15,2013-02-01 15:45:00,
2013-02-01 09:50:00,10.5,4.1,30.29,NW,316,8.0,10.0,75,0.00,,,0.00,Wunderground v.1.15,2013-02-01 15:50:00,
2013-02-01 09:55:00,10.5,3.8,30.29,West,268,8.0,10.0,74,0.00,,,0.00,Wunderground v.1.15,2013-02-01 15:55:00,
2013-02-01 10:00:00,10.4,3.5,30.30,NW,309,8.0,9.0,73,0.00,,,0.00,Wunderground v.1.15,2013-02-01 16:00:00,
2013-02-01 10:05:00,10.4,4.0,30.30,WNW,299,8.0,9.0,75,0.00,,,0.00,Wunderground v.1.15,2013-02-01 16:05:00,
2013-02-01 10:10:00,10.2,3.8,30.30,West,276,8.0,8.0,75,0.00,,,0.00,Wunderground v.1.15,2013-02-01 16:10:00,
2013-02-01 10:15:00,10.4,3.8,30.30,West,281,7.0,10.0,74,0.00,,,0.00,Wunderground v.1.15,2013-02-01 16:15:00,
2013-02-01 10:20:00,10.4,4.0,30.30,WNW,284,7.0,7.0,75,0.00,,,0.00,Wunderground v.1.15,2013-02-01 16:20:00,
2013-02-01 10:25:00,10.2,4.1,30.30,NW,314,7.0,11.0,76,0.00,,,0.00,Wunderground v.1.15,2013-02-01 16:25:00,
2013-02-01 10:29:00,10.4,4.3,30.31,West,267,6.0,8.0,76,0.00,,,0.00,Wunderground v.1.15,2013-02-01 16:29:00,
2013-02-01 10:34:00,10.4,4.0,30.31,NNW,329,6.0,9.0,75,0.00,,,0.00,Wunderground v.1.15,2013-02-01 16:34:00,
2013-02-01 10:40:00,10.4,3.5,30.31,West,281,6.0,6.0,73,0.00,,,0.00,Wunderground v.1.15,2013-02-01 16:40:00,
2013-02-01 10:45:00,10.4,3.2,30.31,WNW,287,6.0,6.0,72,0.00,,,0.00,Wunderground v.1.15,2013-02-01 16:45:00,
2013-02-01 10:50:00,10.0,3.7,30.31,West,278,6.0,10.0,75,0.00,,,0.00,Wunderground v.1.15,2013-02-01 16:50:00,
2013-02-01 10:55:00,10.2,4.1,30.31,WNW,288,7.0,10.0,76,0.00,,,0.00,Wunderground v.1.15,2013-02-01 16:55:00,
2013-02-01 11:00:00,10.2,3.8,30.31,NW,311,6.0,6.0,75,0.00,,,0.00,Wunderground v.1.15,2013-02-01 17:00:00,
2013-02-01 11:05:00,10.0,3.4,30.31,West,275,7.0,7.0,74,0.00,,,0.00,Wunderground v.1.15,2013-02-01 17:05:00,
2013-02-01 11:10:00,10.0,3.4,30.31,West,264,7.0,7.0,74,0.00,,,0.00,Wunderground v.1.15,2013-02-01 17:10:00,
2013-02-01 11:15:00,10.0,3.4,30.31,West,265,6.0,12.0,74,0.00,,,0.00,Wunderground v.1.15,2013-02-01 17:15:00,
2013-02-01 11:20:00,9.9,3.6,30.31,WNW,288,7.0,11.0,75,0.00,,,0.00,Wunderground v.1.15,2013-02-01 17:20:00,
2013-02-01 11:25:00,10.0,3.9,30.31,WNW,288,8.0,11.0,76,0.00,,,0.00,Wunderground v.1.15,2013-02-01 17:25:00,
2013-02-01 11:30:00,10.2,4.7,30.31,SW,229,6.0,7.0,78,0.00,,,0.00,Wunderground v.1.15,2013-02-01 17:30:00,
2013-02-01 11:35:00,9.9,4.1,30.31,West,268,7.0,8.0,77,0.00,,,0.00,Wunderground v.1.15,2013-02-01 17:35:00,
2013-02-01 11:39:00,9.9,3.6,30.31,West,273,8.0,8.0,75,0.00,,,0.00,Wunderground v.1.15,2013-02-01 17:39:00,
2013-02-01 11:44:00,10.0,4.2,30.31,West,279,6.0,8.0,77,0.00,,,0.00,Wunderground v.1.15,2013-02-01 17:44:00,
2013-02-01 11:49:00,10.0,4.2,30.31,West,259,5.0,7.0,77,0.00,,,0.00,Wunderground v.1.15,2013-02-01 17:49:00,
2013-02-01 11:55:00,10.0,3.9,30.31,West,259,6.0,10.0,76,0.00,,,0.00,Wunderground v.1.15,2013-02-01 17:55:00,
2013-02-01 12:00:00,10.0,3.7,30.31,West,262,6.0,6.0,75,0.00,,,0.00,Wunderground v.1.15,2013-02-01 18:00:00,
2013-02-01 12:05:00,10.2,4.4,30.31,West,261,6.0,6.0,77,0.00,,,0.00,Wunderground v.1.15,2013-02-01 18:05:00,
2013-02-01 12:10:00,10.2,4.4,30.31,WNW,302,6.0,6.0,77,0.00,,,0.00,Wunderground v.1.15,2013-02-01 18:10:00,
2013-02-01 12:15:00,10.2,3.8,30.30,West,263,6.0,10.0,75,0.00,,,0.00,Wunderground v.1.15,2013-02-01 18:15:00,
2013-02-01 12:20:00,10.2,3.3,30.30,WNW,287,8.0,8.0,73,0.00,,,0.00,Wunderground v.1.15,2013-02-01 18:20:00,
2013-02-01 12:29:00,10.4,4.0,30.30,WSW,257,10.0,10.0,75,0.00,,,0.00,Wunderground v.1.15,2013-02-01 18:29:00,
2013-02-01 12:35:00,10.4,4.0,30.30,West,281,8.0,10.0,75,0.00,,,0.00,Wunderground v.1.15,2013-02-01 18:35:00,
2013-02-01 12:40:00,10.4,4.3,30.30,WNW,288,8.0,11.0,76,0.00,,,0.00,Wunderground v.1.15,2013-02-01 18:40:00,
2013-02-01 12:45:00,10.4,4.3,30.30,West,272,8.0,11.0,76,0.00,,,0.00,Wunderground v.1.15,2013-02-01 18:45:00,
2013-02-01 12:50:00,10.4,4.6,30.30,West,279,9.0,10.0,77,0.00,,,0.00,Wunderground v.1.15,2013-02-01 18:50:00,
2013-02-01 12:55:00,10.4,4.6,30.30,WNW,302,9.0,11.0,77,0.00,,,0.00,Wunderground v.1.15,2013-02-01 18:55:00,
2013-02-01 13:00:00,10.5,4.7,30.29,West,265,8.0,8.0,77,0.00,,,0.00,Wunderground v.1.15,2013-02-01 19:00:00,
2013-02-01 13:05:00,10.5,4.4,30.29,WSW,237,7.0,8.0,76,0.00,,,0.00,Wunderground v.1.15,2013-02-01 19:05:00,
2013-02-01 13:10:00,10.5,4.4,30.29,West,261,7.0,7.0,76,0.00,,,0.00,Wunderground v.1.15,2013-02-01 19:10:00,
2013-02-01 13:14:00,10.5,3.8,30.29,WSW,252,8.0,13.0,74,0.00,,,0.00,Wunderground v.1.15,2013-02-01 19:14:00,
2013-02-01 13:19:00,10.5,3.6,30.29,West,265,9.0,9.0,73,0.00,,,0.00,Wunderground v.1.15,2013-02-01 19:19:00,
2013-02-01 13:25:00,10.5,4.1,30.29,WSW,246,8.0,9.0,75,0.00,,,0.00,Wunderground v.1.15,2013-02-01 19:25:00,
2013-02-01 13:29:00,10.5,5.0,30.28,WSW,244,7.0,7.0,78,0.00,,,0.00,Wunderground v.1.15,2013-02-01 19:29:00,
2013-02-01 13:34:00,10.7,5.5,30.28,SW,236,7.0,7.0,79,0.00,,,0.00,Wunderground v.1.15,2013-02-01 19:34:00,
2013-02-01 13:40:00,10.7,5.5,30.28,WNW,284,7.0,7.0,79,0.00,,,0.00,Wunderground v.1.15,2013-02-01 19:40:00,
2013-02-01 13:45:00,10.9,5.9,30.28,West,269,7.0,7.0,80,0.00,,,0.00,Wunderground v.1.15,2013-02-01 19:45:00,
2013-02-01 13:50:00,11.1,6.1,30.28,WSW,252,6.0,6.0,80,0.00,,,0.00,Wunderground v.1.15,2013-02-01 19:50:00,
2013-02-01 13:55:00,11.2,6.2,30.28,West,273,7.0,7.0,80,0.00,,,0.00,Wunderground v.1.15,2013-02-01 19:55:00,
2013-02-01 14:00:00,11.1,5.9,30.28,West,266,7.0,7.0,79,0.00,,,0.00,Wunderground v.1.15,2013-02-01 20:00:00,
2013-02-01 14:05:00,11.1,5.6,30.28,WSW,238,8.0,8.0,78,0.00,,,0.00,Wunderground v.1.15,2013-02-01 20:05:00,
2013-02-01 14:10:00,11.2,5.4,30.28,West,269,7.0,12.0,77,0.00,,,0.00,Wunderground v.1.15,2013-02-01 20:10:00,
2013-02-01 14:15:00,11.4,5.6,30.28,West,264,8.0,12.0,77,0.00,,,0.00,Wunderground v.1.15,2013-02-01 20:15:00,
2013-02-01 14:20:00,11.4,5.6,30.28,WSW,241,9.0,9.0,77,0.00,,,0.00,Wunderground v.1.15,2013-02-01 20:20:00,
2013-02-01 14:25:00,11.7,5.9,30.28,West,261,7.0,9.0,77,0.00,,,0.00,Wunderground v.1.15,2013-02-01 20:25:00,
2013-02-01 14:30:00,11.7,6.2,30.28,West,259,6.0,6.0,78,0.00,,,0.00,Wunderground v.1.15,2013-02-01 20:30:00,
2013-02-01 14:35:00,11.9,5.2,30.28,West,269,8.0,8.0,74,0.00,,,0.00,Wunderground v.1.15,2013-02-01 20:35:00,
2013-02-01 14:40:00,11.9,5.5,30.28,West,263,8.0,11.0,75,0.00,,,0.00,Wunderground v.1.15,2013-02-01 20:40:00,
2013-02-01 14:45:00,12.1,5.4,30.28,West,260,7.0,13.0,74,0.00,,,0.00,Wunderground v.1.15,2013-02-01 20:45:00,
2013-02-01 14:50:00,11.9,4.9,30.28,WSW,254,8.0,8.0,73,0.00,,,0.00,Wunderground v.1.15,2013-02-01 20:50:00,
2013-02-01 14:55:00,12.1,5.7,30.28,WSW,250,8.0,8.0,75,0.00,,,0.00,Wunderground v.1.15,2013-02-01 20:55:00,
2013-02-01 15:00:00,12.1,5.7,30.28,West,262,8.0,14.0,75,0.00,,,0.00,Wunderground v.1.15,2013-02-01 21:00:00,
2013-02-01 15:04:00,12.1,5.7,30.28,West,263,9.0,14.0,75,0.00,,,0.00,Wunderground v.1.15,2013-02-01 21:04:00,
2013-02-01 15:10:00,12.3,5.9,30.28,West,277,8.0,10.0,75,0.00,,,0.00,Wunderground v.1.15,2013-02-01 21:10:00,
2013-02-01 15:15:00,12.1,6.0,30.28,WSW,248,8.0,10.0,76,0.00,,,0.00,Wunderground v.1.15,2013-02-01 21:15:00,
2013-02-01 15:20:00,12.1,6.0,30.28,West,263,8.0,8.0,76,0.00,,,0.00,Wunderground v.1.15,2013-02-01 21:20:00,
2013-02-01 15:25:00,12.3,5.6,30.28,WSW,240,8.0,10.0,74,0.00,,,0.00,Wunderground v.1.15,2013-02-01 21:25:00,
2013-02-01 15:30:00,12.4,5.4,30.27,West,263,7.0,9.0,73,0.00,,,0.00,Wunderground v.1.15,2013-02-01 21:30:00,
2013-02-01 15:35:00,12.4,4.8,30.27,West,266,8.0,9.0,71,0.00,,,0.00,Wunderground v.1.15,2013-02-01 21:35:00,
2013-02-01 15:40:00,12.6,4.7,30.27,WSW,254,9.0,9.0,70,0.00,,,0.00,Wunderground v.1.15,2013-02-01 21:40:00,
2013-02-01 15:45:00,12.8,4.5,30.26,SW,229,8.0,9.0,69,0.00,,,0.00,Wunderground v.1.15,2013-02-01 21:45:00,
2013-02-01 15:50:00,12.8,4.2,30.26,West,269,7.0,7.0,68,0.00,,,0.00,Wunderground v.1.15,2013-02-01 21:50:00,
2013-02-01 15:55:00,12.8,3.9,30.26,West,277,8.0,8.0,67,0.00,,,0.00,Wunderground v.1.15,2013-02-01 21:55:00,
2013-02-01 16:00:00,12.9,4.3,30.26,WSW,257,8.0,18.0,68,0.00,,,0.00,Wunderground v.1.15,2013-02-01 22:00:00,
2013-02-01 16:05:00,12.9,4.0,30.26,West,273,7.0,18.0,67,0.00,,,0.00,Wunderground v.1.15,2013-02-01 22:05:00,
2013-02-01 16:10:00,13.1,2.9,30.26,West,269,8.0,8.0,63,0.00,,,0.00,Wunderground v.1.15,2013-02-01 22:10:00,
2013-02-01 16:14:00,13.1,4.2,30.26,West,259,7.0,8.0,67,0.00,,,0.00,Wunderground v.1.15,2013-02-01 22:14:00,
2013-02-01 16:19:00,13.3,4.4,30.26,SW,217,6.0,6.0,67,0.00,,,0.00,Wunderground v.1.15,2013-02-01 22:19:00,
2013-02-01 16:25:00,13.3,4.1,30.26,West,268,8.0,18.0,66,0.00,,,0.00,Wunderground v.1.15,2013-02-01 22:25:00,
2013-02-01 16:30:00,13.3,3.7,30.26,West,264,10.0,10.0,65,0.00,,,0.00,Wunderground v.1.15,2013-02-01 22:30:00,
2013-02-01 16:35:00,13.3,4.4,30.26,WSW,255,8.0,10.0,67,0.00,,,0.00,Wunderground v.1.15,2013-02-01 22:35:00,
2013-02-01 16:40:00,13.3,4.4,30.26,WSW,252,8.0,8.0,67,0.00,,,0.00,Wunderground v.1.15,2013-02-01 22:40:00,
2013-02-01 16:45:00,13.5,4.6,30.25,WSW,245,7.0,8.0,67,0.00,,,0.00,Wunderground v.1.15,2013-02-01 22:45:00,
2013-02-01 16:50:00,13.5,4.2,30.25,West,278,8.0,9.0,66,0.00,,,0.00,Wunderground v.1.15,2013-02-01 22:50:00,
2013-02-01 16:55:00,13.6,4.3,30.25,WSW,247,9.0,9.0,66,0.00,,,0.00,Wunderground v.1.15,2013-02-01 22:55:00,
2013-02-01 17:00:00,13.6,4.0,30.25,West,263,8.0,9.0,65,0.00,,,0.00,Wunderground v.1.15,2013-02-01 23:00:00,
2013-02-01 17:10:00,12.9,3.0,30.25,SSW,205,4.0,4.0,64,0.00,,,0.00,Wunderground v.1.15,2013-02-01 23:10:00,
2013-02-01 17:15:00,12.4,2.5,30.25,SSW,198,3.0,4.0,64,0.00,,,0.00,Wunderground v.1.15,2013-02-01 23:15:00,
2013-02-01 17:24:00,12.1,1.9,30.25,SSW,205,4.0,4.0,63,0.00,,,0.00,Wunderground v.1.15,2013-02-01 23:24:00,
2013-02-01 17:30:00,12.1,1.9,30.25,SSW,200,4.0,4.0,63,0.00,,,0.00,Wunderground v.1.15,2013-02-01 23:30:00,
2013-02-01 17:35:00,11.9,1.7,30.25,SSW,204,3.0,4.0,63,0.00,,,0.00,Wunderground v.1.15,2013-02-01 23:35:00,
2013-02-01 17:40:00,11.9,1.7,30.25,SW,217,3.0,3.0,63,0.00,,,0.00,Wunderground v.1.15,2013-02-01 23:40:00,
2013-02-01 17:45:00,11.9,1.7,30.25,SW,226,3.0,3.0,63,0.00,,,0.00,Wunderground v.1.15,2013-02-01 23:45:00,
2013-02-01 17:50:00,12.1,1.9,30.25,SW,236,3.0,3.0,63,0.00,,,0.00,Wunderground v.1.15,2013-02-01 23:50:00,
2013-02-01 18:00:00,12.1,2.2,30.25,SSW,207,3.0,4.0,64,0.00,,,0.00,Wunderground v.1.15,2013-02-02 00:00:00,
2013-02-01 18:05:00,12.3,2.4,30.25,South,190,4.0,4.0,64,0.00,,,0.00,Wunderground v.1.15,2013-02-02 00:05:00,
2013-02-01 18:09:00,12.3,2.4,30.25,SSW,202,4.0,4.0,64,0.00,,,0.00,Wunderground v.1.15,2013-02-02 00:09:00,
2013-02-01 18:14:00,12.3,2.8,30.25,SSW,197,4.0,4.0,65,0.00,,,0.00,Wunderground v.1.15,2013-02-02 00:14:00,
2013-02-01 18:19:00,12.4,2.9,30.25,SSW,213,4.0,5.0,65,0.00,,,0.00,Wunderground v.1.15,2013-02-02 00:19:00,
2013-02-01 18:25:00,12.4,2.9,30.25,SSW,208,4.0,5.0,65,0.00,,,0.00,Wunderground v.1.15,2013-02-02 00:25:00,
2013-02-01 18:30:00,12.4,3.2,30.25,SSW,212,4.0,4.0,66,0.00,,,0.00,Wunderground v.1.15,2013-02-02 00:30:00,
2013-02-01 18:35:00,12.4,3.5,30.25,SW,223,4.0,5.0,67,0.00,,,0.00,Wunderground v.1.15,2013-02-02 00:35:00,
2013-02-01 18:40:00,12.4,3.5,30.25,SW,215,4.0,4.0,67,0.00,,,0.00,Wunderground v.1.15,2013-02-02 00:40:00,
2013-02-01 18:45:00,12.4,3.5,30.25,SW,234,4.0,5.0,67,0.00,,,0.00,Wunderground v.1.15,2013-02-02 00:45:00,
2013-02-01 18:50:00,12.4,3.5,30.25,SSW,209,4.0,5.0,67,0.00,,,0.00,Wunderground v.1.15,2013-02-02 00:50:00,
2013-02-01 18:55:00,12.4,3.8,30.25,SW,222,3.0,5.0,68,0.00,,,0.00,Wunderground v.1.15,2013-02-02 00:55:00,
2013-02-01 19:00:00,12.4,3.8,30.24,SW,217,3.0,4.0,68,0.00,,,0.00,Wunderground v.1.15,2013-02-02 01:00:00,
2013-02-01 19:05:00,12.4,3.5,30.24,SSW,203,4.0,4.0,67,0.00,,,0.00,Wunderground v.1.15,2013-02-02 01:05:00,
2013-02-01 19:10:00,12.4,3.5,30.24,SSW,199,4.0,4.0,67,0.00,,,0.00,Wunderground v.1.15,2013-02-02 01:10:00,
2013-02-01 19:15:00,12.4,3.5,30.24,SSW,200,3.0,5.0,67,0.00,,,0.00,Wunderground v.1.15,2013-02-02 01:15:00,
2013-02-01 19:20:00,12.4,3.5,30.24,SW,236,4.0,4.0,67,0.00,,,0.00,Wunderground v.1.15,2013-02-02 01:20:00,
2013-02-01 19:25:00,12.6,4.0,30.24,SW,218,4.0,4.0,68,0.00,,,0.00,Wunderground v.1.15,2013-02-02 01:25:00,
2013-02-01 19:30:00,12.8,4.2,30.23,SW,231,3.0,3.0,68,0.00,,,0.00,Wunderground v.1.15,2013-02-02 01:30:00,
2013-02-01 19:35:00,12.8,4.2,30.23,SSW,198,3.0,3.0,68,0.00,,,0.00,Wunderground v.1.15,2013-02-02 01:35:00,
2013-02-01 19:40:00,12.9,4.3,30.23,SSW,199,2.0,3.0,68,0.00,,,0.00,Wunderground v.1.15,2013-02-02 01:40:00,
2013-02-01 19:45:00,13.1,4.5,30.23,SSW,199,2.0,3.0,68,0.00,,,0.00,Wunderground v.1.15,2013-02-02 01:45:00,
2013-02-01 19:50:00,13.6,5.3,30.23,SW,234,3.0,3.0,69,0.00,,,0.00,Wunderground v.1.15,2013-02-02 01:50:00,
2013-02-01 19:55:00,14.3,5.7,30.23,SSW,210,4.0,4.0,68,0.00,,,0.00,Wunderground v.1.15,2013-02-02 01:55:00,
2013-02-01 20:00:00,14.0,5.4,30.23,SW,219,4.0,4.0,68,0.00,,,0.00,Wunderground v.1.15,2013-02-02 02:00:00,
2013-02-01 20:05:00,15.1,6.4,30.23,WSW,251,5.0,5.0,68,0.00,,,0.00,Wunderground v.1.15,2013-02-02 02:05:00,
2013-02-01 20:10:00,15.9,7.2,30.23,WSW,256,8.0,8.0,68,0.00,,,0.00,Wunderground v.1.15,2013-02-02 02:10:00,
2013-02-01 20:15:00,16.1,6.4,30.22,SW,227,8.0,8.0,65,0.00,,,0.00,Wunderground v.1.15,2013-02-02 02:15:00,
2013-02-01 20:20:00,15.4,5.7,30.22,SSW,206,6.0,6.0,65,0.00,,,0.00,Wunderground v.1.15,2013-02-02 02:20:00,
2013-02-01 20:25:00,14.3,5.0,30.22,SSW,206,4.0,6.0,66,0.00,,,0.00,Wunderground v.1.15,2013-02-02 02:25:00,
2013-02-01 20:30:00,13.8,4.5,30.22,SW,218,4.0,4.0,66,0.00,,,0.00,Wunderground v.1.15,2013-02-02 02:30:00,
2013-02-01 20:35:00,13.6,4.7,30.22,SSW,207,3.0,4.0,67,0.00,,,0.00,Wunderground v.1.15,2013-02-02 02:35:00,
2013-02-01 20:40:00,13.6,5.0,30.22,SSW,205,2.0,2.0,68,0.00,,,0.00,Wunderground v.1.15,2013-02-02 02:40:00,
2013-02-01 20:45:00,13.6,5.0,30.22,SSW,202,3.0,4.0,68,0.00,,,0.00,Wunderground v.1.15,2013-02-02 02:45:00,
2013-02-01 20:50:00,13.6,5.0,30.22,SSW,202,3.0,3.0,68,0.00,,,0.00,Wunderground v.1.15,2013-02-02 02:50:00,
2013-02-01 20:55:00,13.6,4.7,30.22,SSW,200,3.0,6.0,67,0.00,,,0.00,Wunderground v.1.15,2013-02-02 02:55:00,
2013-02-01 21:00:00,13.6,5.0,30.21,SSW,198,4.0,4.0,68,0.00,,,0.00,Wunderground v.1.15,2013-02-02 03:00:00,
2013-02-01 21:05:00,13.6,5.0,30.21,SSW,198,3.0,4.0,68,0.00,,,0.00,Wunderground v.1.15,2013-02-02 03:05:00,
2013-02-01 21:10:00,13.8,5.2,30.21,SSW,199,3.0,3.0,68,0.00,,,0.00,Wunderground v.1.15,2013-02-02 03:10:00,
2013-02-01 21:15:00,13.8,5.2,30.21,South,182,3.0,6.0,68,0.00,,,0.00,Wunderground v.1.15,2013-02-02 03:15:00,
2013-02-01 21:20:00,13.8,5.2,30.21,SSW,200,3.0,3.0,68,0.00,,,0.00,Wunderground v.1.15,2013-02-02 03:20:00,
2013-02-01 21:25:00,13.6,5.0,30.21,South,190,4.0,4.0,68,0.00,,,0.00,Wunderground v.1.15,2013-02-02 03:25:00,
2013-02-01 21:30:00,13.6,5.0,30.21,SSW,197,4.0,9.0,68,0.00,,,0.00,Wunderground v.1.15,2013-02-02 03:30:00,
2013-02-01 21:35:00,13.5,4.9,30.21,WSW,237,4.0,9.0,68,0.00,,,0.00,Wunderground v.1.15,2013-02-02 03:35:00,
2013-02-01 21:40:00,13.6,4.7,30.21,SSW,194,5.0,5.0,67,0.00,,,0.00,Wunderground v.1.15,2013-02-02 03:40:00,
2013-02-01 21:45:00,13.6,4.7,30.21,SSW,196,4.0,5.0,67,0.00,,,0.00,Wunderground v.1.15,2013-02-02 03:45:00,
2013-02-01 21:50:00,13.6,4.7,30.21,SW,229,4.0,4.0,67,0.00,,,0.00,Wunderground v.1.15,2013-02-02 03:50:00,
2013-02-01 21:54:00,13.6,4.7,30.21,SSW,206,4.0,4.0,67,0.00,,,0.00,Wunderground v.1.15,2013-02-02 03:54:00,
2013-02-01 22:00:00,13.6,4.7,30.20,SSW,209,3.0,5.0,67,0.00,,,0.00,Wunderground v.1.15,2013-02-02 04:00:00,
2013-02-01 22:05:00,13.6,4.7,30.20,SSW,202,4.0,5.0,67,0.00,,,0.00,Wunderground v.1.15,2013-02-02 04:05:00,
2013-02-01 22:10:00,13.6,4.7,30.20,SSW,203,4.0,4.0,67,0.00,,,0.00,Wunderground v.1.15,2013-02-02 04:10:00,
2013-02-01 22:15:00,13.6,4.7,30.20,SSW,204,3.0,4.0,67,0.00,,,0.00,Wunderground v.1.15,2013-02-02 04:15:00,
2013-02-01 22:20:00,13.6,4.7,30.20,SSW,205,3.0,3.0,67,0.00,,,0.00,Wunderground v.1.15,2013-02-02 04:20:00,
2013-02-01 22:25:00,13.6,4.7,30.20,SSW,206,3.0,3.0,67,0.00,,,0.00,Wunderground v.1.15,2013-02-02 04:25:00,
2013-02-01 22:30:00,13.6,5.0,30.20,SSW,205,3.0,5.0,68,0.00,,,0.00,Wunderground v.1.15,2013-02-02 04:30:00,
2013-02-01 22:35:00,13.6,5.0,30.20,SSW,192,3.0,5.0,68,0.00,,,0.00,Wunderground v.1.15,2013-02-02 04:35:00,
2013-02-01 22:40:00,13.6,5.0,30.20,SW,217,3.0,3.0,68,0.00,,,0.00,Wunderground v.1.15,2013-02-02 04:40:00,
2013-02-01 22:45:00,13.8,5.2,30.19,SW,220,3.0,3.0,68,0.00,,,0.00,Wunderground v.1.15,2013-02-02 04:45:00,
2013-02-01 22:50:00,14.0,5.4,30.19,SW,216,2.0,2.0,68,0.00,,,0.00,Wunderground v.1.15,2013-02-02 04:50:00,
2013-02-01 22:55:00,14.3,6.0,30.19,SSW,211,2.0,4.0,69,0.00,,,0.00,Wunderground v.1.15,2013-02-02 04:55:00,
2013-02-01 23:00:00,16.2,8.8,30.19,West,280,5.0,10.0,72,0.00,,,0.00,Wunderground v.1.15,2013-02-02 05:00:00,
2013-02-01 23:10:00,17.2,10.3,30.19,West,265,7.0,7.0,74,0.00,,,0.00,Wunderground v.1.15,2013-02-02 05:10:00,
2013-02-01 23:15:00,17.7,11.4,30.18,WSW,258,8.0,8.0,76,0.00,,,0.00,Wunderground v.1.15,2013-02-02 05:15:00,
2013-02-01 23:20:00,17.8,12.1,30.18,West,273,8.0,11.0,78,0.00,,,0.00,Wunderground v.1.15,2013-02-02 05:20:00,
2013-02-01 23:25:00,17.8,12.4,30.18,West,265,9.0,11.0,79,0.00,,,0.00,Wunderground v.1.15,2013-02-02 05:25:00,
2013-02-01 23:30:00,17.8,12.4,30.18,West,267,8.0,8.0,79,0.00,,,0.00,Wunderground v.1.15,2013-02-02 05:30:00,
2013-02-01 23:35:00,18.0,12.9,30.18,West,259,7.0,8.0,80,0.00,,,0.00,Wunderground v.1.15,2013-02-02 05:35:00,
2013-02-01 23:40:00,18.0,12.9,30.18,West,268,8.0,8.0,80,0.00,,,0.00,Wunderground v.1.15,2013-02-02 05:40:00,
2013-02-01 23:45:00,18.0,13.2,30.17,WSW,250,8.0,8.0,81,0.00,,,0.00,Wunderground v.1.15,2013-02-02 05:45:00,
2013-02-01 23:50:00,18.0,13.2,30.17,West,261,7.0,7.0,81,0.00,,,0.00,Wunderground v.1.15,2013-02-02 05:50:00,
2013-02-01 23:55:00,18.0,13.2,30.17,WSW,251,7.0,7.0,81,0.00,,,0.00,Wunderground v.1.15,2013-02-02 05:55:00,